Terminal Aerodrome Forecast
Issued by NWS Green Bay, WI

Home | Current Version | Previous Version | Graphics & Text | Print | Product List | Glossary On
Versions: 1 2 3 4 5 6 7 8 9 10 11 12 13 14 15 16 17 18 19 20 21 22 23 24 25 26 27 28 29
000
FTUS43 KGRB 192300
TAFGRB
TAF
KGRB 192325Z 2000/2024 17009KT P6SM SCT050 SCT090
     FM200300 18004KT P6SM SCT050 BKN250
     FM200900 20003KT P6SM BKN100
     FM201600 21010KT P6SM SCT040 SCT100 BKN200=

USA.gov is the U.S. government's official web portal to all federal, state and local government web resources and services.